Terskol, Russia
Current Conditions -  °F | °C
As of 10:00 AM on Friday 28 Nov 2014 (Local Time) from URMN Reporting Station
Overcast Overcast  
Wind Chill: 34°   Ceiling: 600
Heat Index: 34°   Visibility: 6mi
Dew Point: 34°   Wind: 0mph
Humidity: 100%   Direction: NA
Pressure: 30.27"   Gusts: NA
Location:  43.26°N, 42.53°E
Report Text: URMN 280700Z 00000MPS 9999 OVC006 01/01 Q1025 NOSIG RMK MT OBSCQFE731SC06
Loading
Personal Weather Stations






























Interactive Weather Map New forecast layout! Learn more

10-Day Weather Forecast

Advertisements
Track Severe Weather on mobile